Time;durP1;ratioP1;P1;durP2;ratioP2;P2;SDS_P1;SDS_P2;PMS_P1;PMS_P2;Temp;Humidity;BMP_temperature;BMP_pressure;BME280_temperature;BME280_humidity;BME280_pressure;Samples;Min_cycle;Max_cycle;Signal;HPM_P1;HPM_P2
2020/12/16 00:01:33;;;;;;;103.78;22.08;;;;;;;;;;5071636;28;20467;-66
2020/12/16 00:03:59;;;;;;;64.82;21.25;;;;;;;;;;5070535;28;20071;-66
2020/12/16 00:06:25;;;;;;;140.88;26.17;;;;;;;;;;5071242;28;20414;-66
2020/12/16 00:08:52;;;;;;;196.48;31.10;;;;;;;;;;5071899;28;20086;-66
2020/12/16 00:11:18;;;;;;;91.30;21.77;;;;;;;;;;5071869;28;20039;-66
2020/12/16 00:13:44;;;;;;;72.93;20.20;;;;;;;;;;5071761;28;20021;-66
2020/12/16 00:16:10;;;;;;;97.07;19.45;;;;;;;;;;5070289;28;20033;-65
2020/12/16 00:18:37;;;;;;;121.07;23.30;;;;;;;;;;5072021;28;20075;-67
2020/12/16 00:21:03;;;;;;;72.45;20.35;;;;;;;;;;5071918;28;20120;-67
2020/12/16 00:23:29;;;;;;;84.57;18.88;;;;;;;;;;5071531;28;20082;-66
2020/12/16 00:25:56;;;;;;;48.13;18.58;;;;;;;;;;5071667;28;20040;-66
2020/12/16 00:28:22;;;;;;;74.97;19.13;;;;;;;;;;5071565;28;20032;-66
2020/12/16 00:30:49;;;;;;;81.93;18.67;;;;;;;;;;5071398;28;20552;-65
2020/12/16 00:33:16;;;;;;;63.28;17.92;;;11.80;64.50;;;;;;5071322;28;20035;-65
2020/12/16 00:35:43;;;;;;;63.92;18.63;;;;;;;;;;5071212;28;20374;-65
2020/12/16 00:38:13;;;;;;;56.20;18.00;;;11.90;63.90;;;;;;5071093;28;20395;-66
2020/12/16 00:40:40;;;;;;;70.55;18.10;;;;;;;;;;5071314;28;20029;-65
2020/12/16 00:43:07;;;;;;;51.08;15.90;;;;;;;;;;5071599;28;20047;-64
2020/12/16 00:45:33;;;;;;;60.15;18.02;;;;;;;;;;5072727;28;20467;-65
2020/12/16 00:47:59;;;;;;;47.65;15.85;;;;;;;;;;5070687;28;20483;-65
2020/12/16 00:50:26;;;;;;;69.65;18.60;;;;;;;;;;5069639;28;20041;-66
2020/12/16 00:53:00;;;;;;;67.22;18.30;;;;;;;;;;5070086;28;20048;-65
2020/12/16 00:55:29;;;;;;;71.25;16.60;;;;;;;;;;5068178;28;20036;-67
2020/12/16 00:57:55;;;;;;;84.25;19.25;;;;;;;;;;5057951;28;20040;-66
2020/12/16 01:00:22;;;;;;;74.55;19.42;;;;;;;;;;5052943;28;20043;-66
2020/12/16 01:02:51;;;;;;;131.35;21.48;;;;;;;;;;5069558;28;20123;-67
2020/12/16 01:05:23;;;;;;;84.57;19.25;;;;;;;;;;5070341;28;20090;-66
2020/12/16 01:07:51;;;;;;;174.43;24.45;;;;;;;;;;5070742;28;20407;-66
2020/12/16 01:10:18;;;;;;;138.98;22.45;;;;;;;;;;5069969;28;20099;-66
2020/12/16 01:12:47;;;;;;;183.93;23.00;;;11.80;63.80;;;;;;5069991;28;20036;-67
2020/12/16 01:15:16;;;;;;;147.90;25.00;;;11.80;63.90;;;;;;5069712;28;20048;-66
2020/12/16 01:17:43;;;;;;;130.23;22.67;;;;;;;;;;5071274;28;20040;-66
2020/12/16 01:20:10;;;;;;;108.72;19.48;;;11.40;64.30;;;;;;5070778;28;20391;-66
2020/12/16 01:22:43;;;;;;;111.03;22.00;;;11.60;64.40;;;;;;5069838;28;20055;-66
2020/12/16 01:25:10;;;;;;;63.95;17.02;;;;;;;;;;5069664;28;20023;-66
2020/12/16 01:27:36;;;;;;;82.00;18.30;;;;;;;;;;5070797;28;20045;-66
2020/12/16 01:30:07;;;;;;;63.25;17.75;;;11.60;64.20;;;;;;5069223;28;20490;-65
2020/12/16 01:32:36;;;;;;;49.97;16.45;;;;;;;;;;5053044;28;20025;-66
2020/12/16 01:35:07;;;;;;;114.18;23.45;;;11.50;64.30;;;;;;5052959;28;20033;-65
2020/12/16 01:37:34;;;;;;;122.18;20.85;;;;;;;;;;5069393;28;20433;-66
2020/12/16 01:40:00;;;;;;;103.43;18.13;;;;;;;;;;5069394;28;20083;-65
2020/12/16 01:42:33;;;;;;;65.25;19.00;;;;;;;;;;5069571;28;20029;-66
2020/12/16 01:45:11;;;;;;;58.45;15.95;;;11.20;64.50;;;;;;5069724;28;20029;-65
2020/12/16 01:47:38;;;;;;;37.85;14.77;;;;;;;;;;5069464;28;20025;-66
2020/12/16 01:50:12;;;;;;;42.90;14.90;;;10.70;65.90;;;;;;5072354;28;20111;-66
2020/12/16 01:52:40;;;;;;;81.18;17.30;;;;;;;;;;5073237;28;20027;-64
2020/12/16 01:55:10;;;;;;;75.45;16.85;;;10.90;65.70;;;;;;5073055;28;20041;-65
2020/12/16 01:57:45;;;;;;;87.78;15.98;;;10.90;65.90;;;;;;5073221;28;20055;-67
2020/12/16 02:00:17;;;;;;;61.67;18.93;;;;;;;;;;5073284;28;20047;-66
2020/12/16 02:02:52;;;;;;;80.63;16.88;;;11.00;65.10;;;;;;5073051;28;20036;-65
2020/12/16 02:05:27;;;;;;;88.50;18.83;;;;;;;;;;5072679;28;20174;-65
2020/12/16 02:08:01;;;;;;;49.72;16.33;;;11.00;65.60;;;;;;5072460;28;20441;-65
2020/12/16 02:10:32;;;;;;;50.67;15.23;;;;;;;;;;5073089;28;20033;-67
2020/12/16 02:12:58;;;;;;;41.83;14.95;;;;;;;;;;5072878;28;20032;-66
2020/12/16 02:15:25;;;;;;;58.80;19.38;;;;;;;;;;5072829;28;20470;-64
2020/12/16 02:17:52;;;;;;;44.42;17.73;;;;;;;;;;5072557;28;20025;-65
2020/12/16 02:20:20;;;;;;;48.42;16.75;;;10.80;65.50;;;;;;5056322;28;20044;-66
2020/12/16 02:22:52;;;;;;;85.93;16.95;;;10.90;65.50;;;;;;5074108;28;20031;-67
2020/12/16 02:25:22;;;;;;;55.75;16.25;;;;;;;;;;5072418;28;20020;-67
2020/12/16 02:27:59;;;;;;;129.68;18.42;;;;;;;;;;5072679;28;20044;-67
2020/12/16 02:30:30;;;;;;;63.65;17.20;;;;;;;;;;5044582;28;20075;-68
2020/12/16 02:33:29;;;;;;;86.38;19.35;;;;;;;;;;5031386;28;20048;-66
2020/12/16 02:36:07;;;;;;;52.50;17.17;;;;;;;;;;5014831;28;20041;-66
2020/12/16 02:38:54;;;;;;;99.88;17.58;;;;;;;;;;5014821;28;20029;-65
2020/12/16 02:41:24;;;;;;;96.45;17.00;;;;;;;;;;5014887;28;20447;-67
2020/12/16 02:43:52;;;;;;;48.83;17.15;;;;;;;;;;5014621;28;20045;-67
2020/12/16 02:46:20;;;;;;;50.33;16.42;;;;;;;;;;5014914;28;20550;-66
2020/12/16 02:48:46;;;;;;;34.00;15.07;;;;;;;;;;5014309;28;20048;-67
2020/12/16 02:51:13;;;;;;;45.05;14.68;;;;;;;;;;5014867;28;20037;-65
2020/12/16 02:53:39;;;;;;;;;;;10.40;67.00;;;;;;5014928;28;20155;-65
2020/12/16 02:56:27;;;;;;;44.85;14.63;;;;;;;;;;5014609;28;19909;-66
2020/12/16 02:59:03;;;;;;;41.03;16.95;;;;;;;;;;5014384;28;20072;-64
2020/12/16 03:01:33;;;;;;;31.38;15.63;;;;;;;;;;5014523;28;20029;-67
2020/12/16 03:04:17;;;;;;;25.50;13.55;;;;;;;;;;5014350;28;20091;-65
2020/12/16 03:06:58;;;;;;;33.67;14.70;;;;;;;;;;5014005;28;20057;-64
2020/12/16 03:09:30;;;;;;;31.20;15.13;;;;;;;;;;5035539;28;20048;-67
2020/12/16 03:11:57;;;;;;;27.67;13.98;;;;;;;;;;5071723;28;20044;-65
2020/12/16 03:14:33;;;;;;;33.92;14.98;;;;;;;;;;5071828;28;20032;-65
2020/12/16 03:17:00;;;;;;;29.42;14.38;;;;;;;;;;5072668;28;20173;-64
2020/12/16 03:19:34;;;;;;;28.13;14.75;;;;;;;;;;5071694;28;20032;-66
2020/12/16 03:22:00;;;;;;;27.55;14.10;;;;;;;;;;5071805;28;20046;-64
2020/12/16 03:24:36;;;;;;;32.53;13.80;;;;;;;;;;5056224;28;20028;-65
2020/12/16 03:27:12;;;;;;;39.50;16.88;;;;;;;;;;5045247;28;20029;-65
2020/12/16 03:29:49;;;;;;;62.65;16.50;;;;;;;;;;5071510;28;20044;-65
2020/12/16 03:32:38;;;;;;;63.03;17.65;;;;;;;;;;5061651;28;20037;-64
2020/12/16 03:35:18;;;;;;;49.67;15.63;;;;;;;;;;5070893;28;20028;-65
2020/12/16 03:37:45;;;;;;;89.05;17.88;;;;;;;;;;5054675;28;20036;-66
2020/12/16 03:40:13;;;;;;;52.38;16.10;;;;;;;;;;5071017;28;20051;-66
2020/12/16 03:42:49;;;;;;;121.35;20.45;;;;;;;;;;5071373;28;20027;-66
2020/12/16 03:45:15;;;;;;;72.13;16.88;;;;;;;;;;5072146;28;20056;-66
2020/12/16 03:47:47;;;;;;;62.88;15.88;;;;;;;;;;5055076;28;20040;-66
2020/12/16 03:50:15;;;;;;;69.45;17.08;;;;;;;;;;5070753;28;20514;-66
2020/12/16 03:52:41;;;;;;;54.50;17.42;;;;;;;;;;5071006;28;20115;-65
2020/12/16 03:55:25;;;;;;;48.63;16.00;;;;;;;;;;5070792;28;20043;-66
2020/12/16 03:58:26;;;;;;;83.03;17.38;;;;;;;;;;5016142;28;20034;-66
2020/12/16 04:01:08;;;;;;;110.50;18.73;;;10.80;65.50;;;;;;5013182;28;20065;-66
2020/12/16 04:03:35;;;;;;;90.75;18.27;;;;;;;;;;4996902;28;20049;-67
2020/12/16 04:06:21;;;;;;;;;;;10.80;65.70;;;;;;5029171;28;20068;-66
2020/12/16 04:08:47;;;;;;;;;;;10.80;66.40;;;;;;5013715;28;20025;-66
2020/12/16 04:11:43;;;;;;;111.32;15.30;;;;;;;;;;5016241;28;19912;-66
2020/12/16 04:14:24;;;;;;;119.38;18.48;;;;;;;;;;5013169;28;20068;-67
2020/12/16 04:16:51;;;;;;;145.50;19.17;;;;;;;;;;5012864;28;20077;-66
2020/12/16 04:19:18;;;;;;;152.00;23.33;;;;;;;;;;5012866;28;20048;-66
2020/12/16 04:21:48;;;;;;;45.15;15.52;;;;;;;;;;5013088;28;20044;-66
2020/12/16 04:24:21;;;;;;;71.00;17.95;;;;;;;;;;5013027;28;20526;-66
2020/12/16 04:26:54;;;;;;;78.57;18.15;;;;;;;;;;5012832;28;20115;-67
2020/12/16 04:29:21;;;;;;;74.43;15.57;;;;;;;;;;5012618;28;20063;-66
2020/12/16 04:31:51;;;;;;;88.63;18.45;;;10.50;66.00;;;;;;5024669;28;20060;-66
2020/12/16 04:34:21;;;;;;;66.63;17.38;;;;;;;;;;5069810;28;20025;-66
2020/12/16 04:36:49;;;;;;;67.85;16.40;;;10.30;66.70;;;;;;5069984;28;20043;-66
2020/12/16 04:39:18;;;;;;;41.30;15.70;;;10.30;67.00;;;;;;5069662;28;20106;-66
2020/12/16 04:41:44;;;;;;;63.67;16.77;;;;;;;;;;5071470;28;20021;-65
2020/12/16 04:44:13;;;;;;;84.65;16.38;;;;;;;;;;5069968;28;20390;-67
2020/12/16 04:46:43;;;;;;;46.05;16.00;;;;;;;;;;5041890;28;20071;-67
2020/12/16 04:49:17;;;;;;;68.85;16.20;;;;;;;;;;5069752;28;20063;-67
2020/12/16 04:51:49;;;;;;;31.80;15.02;;;;;;;;;;5069911;28;20104;-66
2020/12/16 04:54:24;;;;;;;30.83;14.48;;;;;;;;;;5069817;28;20325;-67
2020/12/16 04:56:51;;;;;;;33.22;15.57;;;;;;;;;;5069753;28;20033;-66
2020/12/16 04:59:31;;;;;;;32.20;14.35;;;;;;;;;;5069843;28;20097;-66
2020/12/16 05:02:08;;;;;;;24.15;14.40;;;;;;;;;;5043755;28;20032;-66
2020/12/16 05:04:54;;;;;;;30.15;13.48;;;;;;;;;;5070780;28;20051;-65
2020/12/16 05:07:30;;;;;;;28.58;14.40;;;10.40;65.50;;;;;;5069512;28;20057;-67
2020/12/16 05:09:57;;;;;;;24.73;13.95;;;;;;;;;;5070922;28;20089;-67
2020/12/16 05:12:23;;;;;;;29.65;14.13;;;;;;;;;;5070768;28;20032;-67
2020/12/16 05:14:50;;;;;;;25.90;13.65;;;;;;;;;;5069966;28;20056;-67
2020/12/16 05:17:16;;;;;;;24.83;13.95;;;;;;;;;;5070922;28;20039;-66
2020/12/16 05:20:00;;;;;;;29.60;14.95;;;;;;;;;;5069554;28;20047;-67
2020/12/16 05:22:31;;;;;;;23.08;13.43;;;10.50;64.10;;;;;;5071117;28;20024;-66
2020/12/16 05:24:59;;;;;;;22.45;12.98;;;10.60;63.80;;;;;;5074835;28;20107;-65
2020/12/16 05:27:30;;;;;;;31.98;14.75;;;10.50;63.80;;;;;;5074819;28;20028;-66
2020/12/16 05:30:00;;;;;;;30.50;14.45;;;10.60;63.70;;;;;;5075150;28;20028;-68
2020/12/16 05:32:29;;;;;;;27.63;14.68;;;10.50;63.70;;;;;;5074591;28;20028;-68
2020/12/16 05:34:57;;;;;;;28.42;14.52;;;10.50;63.80;;;;;;5074826;28;20098;-67
2020/12/16 05:37:29;;;;;;;22.65;13.20;;;10.50;63.60;;;;;;5074764;28;20029;-67
2020/12/16 05:40:04;;;;;;;26.95;13.95;;;10.60;63.40;;;;;;5074580;28;20402;-66
2020/12/16 05:42:31;;;;;;;25.73;14.20;;;;;;;;;;5074504;28;20708;-67
2020/12/16 05:44:58;;;;;;;23.23;12.85;;;10.60;63.10;;;;;;5074506;28;20039;-67
2020/12/16 05:47:25;;;;;;;28.38;14.18;;;10.50;63.00;;;;;;5074385;28;20044;-65
2020/12/16 05:49:51;;;;;;;28.08;13.85;;;;;;;;;;5074378;28;20028;-66
2020/12/16 05:52:17;;;;;;;25.67;14.10;;;;;;;;;;5074424;28;20082;-66
2020/12/16 05:54:49;;;;;;;28.48;14.13;;;10.50;63.00;;;;;;5074314;28;20056;-65
2020/12/16 05:57:19;;;;;;;27.52;14.38;;;10.40;63.30;;;;;;5074630;28;20074;-66
2020/12/16 06:00:19;;;;;;;25.90;14.30;;;10.50;63.50;;;;;;5074347;28;20024;-66
2020/12/16 06:02:46;;;;;;;25.42;12.93;;;;;;;;;;5073947;28;20029;-66
2020/12/16 06:05:16;;;;;;;28.42;14.60;;;10.50;63.80;;;;;;5074016;28;20097;-65
2020/12/16 06:07:47;;;;;;;29.92;14.02;;;10.50;64.10;;;;;;5048836;28;20050;-65
2020/12/16 06:10:14;;;;;;;30.02;14.35;;;10.50;64.30;;;;;;5052812;28;20025;-67
2020/12/16 06:12:43;;;;;;;28.48;14.48;;;10.40;64.40;;;;;;5054663;28;20113;-67
2020/12/16 06:15:14;;;;;;;29.08;14.30;;;10.50;64.30;;;;;;5054993;28;20476;-67
2020/12/16 06:17:47;;;;;;;28.25;14.55;;;10.40;64.20;;;;;;5054721;28;20051;-68
2020/12/16 06:20:15;;;;;;;25.38;13.15;;;10.50;64.30;;;;;;5054996;28;20029;-66
2020/12/16 06:22:43;;;;;;;30.73;14.23;;;10.40;64.50;;;;;;5054424;28;20139;-66
2020/12/16 06:25:12;;;;;;;27.80;14.35;;;10.10;64.60;;;;;;5053844;28;20035;-66
2020/12/16 06:27:49;;;;;;;31.92;14.73;;;10.30;64.70;;;;;;5053410;28;20107;-66
2020/12/16 06:30:16;;;;;;;22.65;13.63;;;;;;;;;;5054645;28;20052;-66
2020/12/16 06:32:47;;;;;;;26.15;13.25;;;10.40;63.50;;;;;;5054293;28;20064;-67
2020/12/16 06:35:18;;;;;;;24.08;13.63;;;10.50;63.00;;;;;;5053499;28;20056;-66
2020/12/16 06:37:45;;;;;;;27.55;14.02;;;10.50;62.60;;;;;;5054271;28;20036;-65
2020/12/16 06:40:10;;;;;;;;;;;10.50;63.10;;;;;;5062402;28;20036;-65
2020/12/16 06:42:37;;;;;;;24.15;12.65;;;;;;;;;;5074011;28;20358;-66
2020/12/16 06:45:14;;;;;;;33.60;13.60;;;10.50;62.30;;;;;;5073458;28;20040;-66
2020/12/16 06:47:41;;;;;;;25.80;13.45;;;;;;;;;;5072205;28;20048;-66
2020/12/16 06:50:27;;;;;;;35.22;14.15;;;10.40;62.30;;;;;;5073551;28;20078;-66
2020/12/16 06:52:53;;;;;;;27.42;13.65;;;;;;;;;;5073108;28;20041;-67
2020/12/16 06:55:19;;;;;;;29.42;14.82;;;;;;;;;;5072944;28;20479;-68
2020/12/16 06:57:50;;;;;;;29.67;15.65;;;10.30;62.20;;;;;;5071744;28;20040;-66
2020/12/16 07:00:18;;;;;;;26.40;13.57;;;10.30;62.40;;;;;;5065948;28;20029;-66
2020/12/16 07:02:45;;;;;;;28.35;13.10;;;;;;;;;;5064737;28;20474;-67
2020/12/16 07:05:46;;;;;;;26.90;14.15;;;9.90;64.80;;;;;;5072709;28;20061;-66
2020/12/16 07:08:12;;;;;;;24.27;13.57;;;;;;;;;;5030210;28;20500;-67
2020/12/16 07:10:41;;;;;;;23.70;13.18;;;9.90;64.30;;;;;;5030606;28;20116;-67
2020/12/16 07:13:19;;;;;;;28.67;13.45;;;10.00;64.70;;;;;;5031135;28;20046;-67
2020/12/16 07:15:55;;;;;;;28.60;13.77;;;9.80;65.50;;;;;;5030645;28;20041;-67
2020/12/16 07:18:29;;;;;;;34.00;13.82;;;9.80;65.20;;;;;;5030056;28;20124;-66
2020/12/16 07:21:07;;;;;;;27.73;14.40;;;9.90;64.90;;;;;;5030367;28;20033;-66
2020/12/16 07:23:44;;;;;;;29.58;13.07;;;9.90;65.00;;;;;;5029851;28;20063;-67
2020/12/16 07:26:18;;;;;;;31.08;13.82;;;9.60;66.00;;;;;;5030162;28;20043;-66
2020/12/16 07:28:44;;;;;;;27.88;13.90;;;;;;;;;;5030448;28;20049;-67
2020/12/16 07:31:11;;;;;;;29.75;14.48;;;;;;;;;;5030122;28;20063;-67
2020/12/16 07:33:37;;;;;;;24.40;11.75;;;;;;;;;;5029993;28;20103;-67
2020/12/16 07:36:05;;;;;;;25.70;13.05;;;;;;;;;;4986278;28;20061;-67
2020/12/16 07:38:31;;;;;;;24.90;12.18;;;;;;;;;;5017666;28;20041;-66
2020/12/16 07:40:58;;;;;;;20.77;11.07;;;;;;;;;;5014151;28;20065;-65
2020/12/16 07:43:24;;;;;;;27.42;12.88;;;;;;;;;;5061969;28;20021;-65
2020/12/16 07:46:05;;;;;;;27.60;13.73;;;9.60;66.70;;;;;;5055667;28;20033;-66
2020/12/16 07:48:31;;;;;;;25.65;12.52;;;;;;;;;;5051940;28;20032;-66
2020/12/16 07:51:07;;;;;;;28.27;12.27;;;10.00;65.40;;;;;;5058117;28;20488;-66
2020/12/16 07:53:35;;;;;;;28.05;12.88;;;9.80;65.70;;;;;;5044100;28;20029;-68
2020/12/16 07:56:03;;;;;;;25.23;12.00;;;9.70;65.90;;;;;;5052128;28;20033;-65
2020/12/16 07:58:31;;;;;;;29.75;13.43;;;9.80;65.40;;;;;;5051508;28;20029;-67
2020/12/16 08:01:14;;;;;;;31.85;12.30;;;9.90;65.80;;;;;;5050769;28;20029;-64
2020/12/16 08:03:41;;;;;;;23.27;12.65;;;9.70;65.70;;;;;;5052728;28;20033;-66
2020/12/16 08:06:07;;;;;;;;;;;9.60;66.10;;;;;;5052540;28;20052;-65
2020/12/16 08:08:45;;;;;;;26.15;11.05;;;9.90;65.50;;;;;;5052292;28;20397;-66
2020/12/16 08:11:12;;;;;;;24.65;12.93;;;9.90;65.10;;;;;;5051025;28;20044;-66
2020/12/16 08:13:38;;;;;;;26.38;11.65;;;;;;;;;;5052349;28;20039;-66
2020/12/16 08:16:06;;;;;;;19.00;11.23;;;9.80;65.60;;;;;;5057645;28;20033;-66
2020/12/16 08:18:32;;;;;;;21.63;12.18;;;;;;;;;;5051416;28;20472;-66
2020/12/16 08:20:59;;;;;;;24.98;12.82;;;;;;;;;;5065677;28;20023;-67
2020/12/16 08:23:25;;;;;;;25.15;12.35;;;;;;;;;;5058285;28;20037;-64
2020/12/16 08:25:52;;;;;;;34.20;12.15;;;;;;;;;;5065575;28;20479;-65
2020/12/16 08:28:26;;;;;;;29.25;13.40;;;10.30;64.30;;;;;;5061822;28;20055;-66
2020/12/16 08:30:53;;;;;;;25.67;12.10;;;;;;;;;;5064781;28;20033;-67
2020/12/16 08:33:20;;;;;;;28.40;12.65;;;;;;;;;;5060760;28;20111;-68
2020/12/16 08:35:58;;;;;;;28.60;12.43;;;10.50;64.20;;;;;;5049482;28;20472;-66
2020/12/16 08:38:37;;;;;;;23.10;12.60;;;10.60;64.00;;;;;;5054364;28;20107;-67
2020/12/16 08:41:05;;;;;;;27.38;12.30;;;10.60;64.00;;;;;;5070122;28;20558;-67
2020/12/16 08:43:46;;;;;;;23.33;12.38;;;10.60;64.20;;;;;;5070803;28;20029;-66
2020/12/16 08:46:20;;;;;;;27.48;13.10;;;10.60;64.30;;;;;;5070077;28;20031;-67
2020/12/16 08:48:59;;;;;;;25.77;12.82;;;10.60;64.60;;;;;;5069361;28;20094;-67
2020/12/16 08:51:31;;;;;;;23.73;12.07;;;10.50;64.60;;;;;;5070501;28;20492;-66
2020/12/16 08:53:57;;;;;;;26.80;13.38;;;;;;;;;;5069215;28;20063;-66
2020/12/16 08:56:31;;;;;;;25.40;12.93;;;10.70;64.80;;;;;;5070822;28;20037;-65
2020/12/16 08:59:03;;;;;;;20.23;11.35;;;10.70;64.60;;;;;;5053282;28;20032;-64
2020/12/16 09:01:30;;;;;;;22.85;11.85;;;;;;;;;;5052413;28;20102;-65
2020/12/16 09:03:56;;;;;;;22.52;11.77;;;;;;;;;;5055494;28;20035;-65
2020/12/16 09:06:22;;;;;;;26.52;13.40;;;;;;;;;;5050178;28;20487;-66
2020/12/16 09:08:49;;;;;;;28.02;13.35;;;;;;;;;;5051979;28;20084;-66
2020/12/16 09:11:20;;;;;;;24.02;12.52;;;10.90;64.10;;;;;;5055040;28;20051;-67
2020/12/16 09:13:48;;;;;;;29.42;12.77;;;11.00;64.20;;;;;;5058475;28;20028;-64
2020/12/16 09:16:23;;;;;;;23.70;12.45;;;11.10;64.20;;;;;;5058419;28;20363;-66
2020/12/16 09:18:51;;;;;;;21.47;11.30;;;11.10;64.10;;;;;;5050273;28;20033;-65
2020/12/16 09:21:31;;;;;;;26.85;12.15;;;11.10;64.30;;;;;;5050514;28;20037;-66
2020/12/16 09:23:58;;;;;;;22.77;11.48;;;;;;;;;;5049878;28;20475;-66
2020/12/16 09:26:35;;;;;;;22.65;12.32;;;11.20;64.10;;;;;;5049970;28;20053;-67
2020/12/16 09:29:01;;;;;;;22.40;11.45;;;;;;;;;;5050359;28;20040;-68
2020/12/16 09:31:28;;;;;;;30.15;12.70;;;;;;;;;;5050620;28;20029;-65
2020/12/16 09:33:55;;;;;;;22.75;12.05;;;11.30;64.00;;;;;;5050118;28;20033;-65
2020/12/16 09:36:28;;;;;;;22.00;12.23;;;11.40;64.00;;;;;;5048557;28;20037;-65
2020/12/16 09:38:59;;;;;;;23.48;11.73;;;11.50;63.70;;;;;;5049343;28;20041;-67
2020/12/16 09:41:26;;;;;;;22.13;11.75;;;;;;;;;;5068240;28;20313;-65
2020/12/16 09:43:52;;;;;;;24.05;11.55;;;;;;;;;;5069814;28;20028;-64
2020/12/16 09:46:21;;;;;;;18.88;10.77;;;11.50;64.10;;;;;;5070082;28;20083;-65
2020/12/16 09:48:49;;;;;;;20.67;10.18;;;11.60;64.30;;;;;;5070084;28;20086;-65
2020/12/16 09:51:19;;;;;;;20.75;11.13;;;11.80;63.90;;;;;;5069959;28;20479;-66
2020/12/16 09:53:46;;;;;;;18.10;10.10;;;11.80;63.60;;;;;;5061818;28;20430;-65
2020/12/16 09:56:22;;;;;;;22.48;11.15;;;12.00;63.30;;;;;;5064058;28;20033;-65
2020/12/16 09:58:49;;;;;;;21.73;11.27;;;;;;;;;;5070171;28;20117;-65
2020/12/16 10:01:15;;;;;;;20.40;11.18;;;;;;;;;;5068833;28;20028;-65
2020/12/16 10:03:41;;;;;;;21.23;11.00;;;;;;;;;;5069591;28;20039;-65
2020/12/16 10:06:14;;;;;;;22.83;11.35;;;12.30;62.70;;;;;;5069499;28;20080;-66
2020/12/16 10:08:41;;;;;;;22.35;10.80;;;12.40;62.70;;;;;;5063591;28;20056;-64
2020/12/16 10:11:13;;;;;;;19.08;10.48;;;12.50;62.60;;;;;;5073044;28;20093;-65
2020/12/16 10:13:43;;;;;;;19.73;10.10;;;12.50;63.00;;;;;;5073547;28;20056;-65
2020/12/16 10:16:09;;;;;;;21.65;11.18;;;;;;;;;;5074121;28;20093;-63
2020/12/16 10:18:36;;;;;;;18.08;9.88;;;;;;;;;;5073878;28;20052;-66
2020/12/16 10:21:03;;;;;;;18.83;9.35;;;13.00;64.40;;;;;;5073358;28;20502;-66
2020/12/16 10:23:29;;;;;;;18.45;9.02;;;;;;;;;;5073447;28;20025;-67
2020/12/16 10:25:56;;;;;;;16.65;8.32;;;;;;;;;;5073593;28;20075;-66
2020/12/16 10:28:22;;;;;;;15.48;8.18;;;;;;;;;;5073241;28;20159;-66
2020/12/16 10:30:49;;;;;;;15.95;7.93;;;13.90;59.30;;;;;;5072965;28;20466;-66
2020/12/16 10:33:15;;;;;;;14.18;7.72;;;;;;;;;;5061395;28;20098;-67
2020/12/16 10:35:42;;;;;;;13.65;7.50;;;;;;;;;;5069736;28;20024;-64
2020/12/16 10:38:09;;;;;;;14.82;7.88;;;14.40;59.10;;;;;;5067432;28;20029;-65
2020/12/16 10:40:34;;;;;;;;;;;14.40;59.60;;;;;;5067323;28;20062;-66
2020/12/16 10:43:02;;;;;;;14.82;7.45;;;14.60;57.70;;;;;;5072575;28;20016;-66
2020/12/16 10:45:28;;;;;;;14.63;7.20;;;;;;;;;;5073100;28;20029;-66
2020/12/16 10:47:59;;;;;;;16.05;7.47;;;;;;;;;;5072481;28;20501;-65
2020/12/16 10:50:30;;;;;;;10.98;6.40;;;14.90;57.20;;;;;;5072517;28;20043;-66
2020/12/16 10:53:00;;;;;;;13.85;7.50;;;15.00;57.20;;;;;;5072424;28;20036;-66
2020/12/16 10:55:26;;;;;;;11.73;6.38;;;;;;;;;;5071188;28;20394;-66
2020/12/16 10:57:53;;;;;;;15.20;6.18;;;;;;;;;;5072468;28;20126;-65
2020/12/16 11:00:19;;;;;;;11.13;6.20;;;;;;;;;;5072765;28;20167;-66
2020/12/16 11:02:48;;;;;;;10.48;6.13;;;15.00;57.00;;;;;;5072118;28;20475;-65
2020/12/16 11:05:14;;;;;;;11.20;6.32;;;;;;;;;;5070952;28;20023;-65
2020/12/16 11:07:40;;;;;;;12.20;7.50;;;;;;;;;;5068542;28;20068;-64
2020/12/16 11:10:06;;;;;;;12.45;7.22;;;;;;;;;;5068548;28;20094;-66
2020/12/16 11:12:33;;;;;;;12.38;6.68;;;;;;;;;;5072064;28;20044;-65
2020/12/16 11:14:59;;;;;;;11.88;6.82;;;;;;;;;;5070724;28;20140;-65
2020/12/16 11:17:25;;;;;;;14.77;7.35;;;;;;;;;;5070691;28;20047;-65
2020/12/16 11:19:51;;;;;;;12.82;7.00;;;;;;;;;;5071892;28;20036;-65
2020/12/16 11:22:18;;;;;;;12.48;7.15;;;;;;;;;;5071970;28;20029;-66
2020/12/16 11:24:44;;;;;;;13.40;7.13;;;;;;;;;;5071074;28;20040;-66
2020/12/16 11:27:10;;;;;;;17.17;6.93;;;;;;;;;;5071881;28;20430;-64
2020/12/16 11:29:37;;;;;;;15.43;6.68;;;;;;;;;;5070942;28;20044;-64
2020/12/16 11:32:03;;;;;;;15.57;7.25;;;;;;;;;;5071827;28;20033;-65
2020/12/16 11:34:32;;;;;;;11.57;6.53;;;13.90;60.60;;;;;;5071708;28;20048;-66
2020/12/16 11:37:02;;;;;;;12.93;7.43;;;14.40;60.00;;;;;;5070627;28;20047;-65
2020/12/16 11:39:28;;;;;;;14.05;7.47;;;;;;;;;;5059799;28;20090;-65
2020/12/16 11:41:56;;;;;;;12.45;7.25;;;14.30;58.60;;;;;;5071751;28;20032;-64
2020/12/16 11:44:24;;;;;;;13.43;7.28;;;14.10;60.10;;;;;;5071587;28;20029;-67
2020/12/16 11:46:50;;;;;;;13.32;7.45;;;;;;;;;;5071855;28;20033;-65
2020/12/16 11:49:18;;;;;;;12.38;7.70;;;14.40;59.80;;;;;;5071577;28;20452;-64
2020/12/16 11:51:44;;;;;;;12.75;7.68;;;;;;;;;;5071925;28;20085;-65
2020/12/16 11:54:10;;;;;;;15.43;8.50;;;;;;;;;;5071589;28;20387;-62
2020/12/16 11:56:37;;;;;;;15.32;7.72;;;;;;;;;;5071505;28;20468;-67
2020/12/16 11:59:04;;;;;;;12.10;7.93;;;14.20;60.00;;;;;;5070340;28;20198;-67
2020/12/16 12:01:31;;;;;;;15.90;7.90;;;14.40;59.90;;;;;;5071243;28;20032;-67
2020/12/16 12:03:57;;;;;;;15.85;8.68;;;;;;;;;;5071076;28;20054;-67
2020/12/16 12:06:24;;;;;;;14.80;8.50;;;;;;;;;;5069506;28;20045;-66
2020/12/16 12:08:50;;;;;;;15.88;7.90;;;;;;;;;;5064001;28;20098;-65
2020/12/16 12:11:19;;;;;;;14.65;8.30;;;14.40;59.60;;;;;;5049087;28;20033;-65
2020/12/16 12:13:46;;;;;;;13.35;7.57;;;14.60;58.80;;;;;;5067013;28;20532;-65
2020/12/16 12:16:14;;;;;;;24.65;8.50;;;14.40;58.70;;;;;;5070059;28;20033;-65
2020/12/16 12:18:40;;;;;;;13.82;8.00;;;;;;;;;;5068729;28;20024;-64
2020/12/16 12:21:07;;;;;;;16.30;8.52;;;14.00;60.10;;;;;;5070513;28;20044;-64
2020/12/16 12:23:34;;;;;;;15.50;8.52;;;;;;;;;;5050505;28;20067;-64
2020/12/16 12:26:00;;;;;;;13.30;7.68;;;;;;;;;;5069787;28;20360;-64
2020/12/16 12:28:26;;;;;;;13.45;7.65;;;;;;;;;;5069305;28;20470;-65
2020/12/16 12:30:53;;;;;;;13.65;8.00;;;;;;;;;;5067731;28;20040;-66
2020/12/16 12:33:19;;;;;;;15.90;8.45;;;;;;;;;;5068648;28;20028;-66
2020/12/16 12:35:46;;;;;;;11.30;6.97;;;;;;;;;;5068226;28;20036;-66
2020/12/16 12:38:13;;;;;;;14.23;7.85;;;;;;;;;;5062969;28;20541;-62
2020/12/16 12:40:39;;;;;;;14.93;7.65;;;;;;;;;;5066413;28;20025;-65
2020/12/16 12:43:06;;;;;;;12.40;6.88;;;;;;;;;;5052539;28;20047;-64
2020/12/16 12:45:33;;;;;;;13.68;7.50;;;;;;;;;;5070909;28;20090;-64
2020/12/16 12:47:59;;;;;;;14.13;8.13;;;;;;;;;;5068861;28;20036;-65
2020/12/16 12:50:25;;;;;;;13.55;6.95;;;;;;;;;;5069361;28;20036;-65
2020/12/16 12:52:52;;;;;;;;;;;13.70;61.50;;;;;;5070276;28;20082;-65
2020/12/16 12:55:18;;;;;;;16.50;7.72;;;;;;;;;;5070711;28;19908;-66
2020/12/16 12:57:44;;;;;;;14.20;7.47;;;;;;;;;;5070431;28;20067;-66
2020/12/16 13:00:12;;;;;;;14.90;8.27;;;13.10;63.80;;;;;;5070305;28;20030;-65
2020/12/16 13:02:38;;;;;;;14.70;7.93;;;;;;;;;;5069945;28;20028;-65
2020/12/16 13:05:06;;;;;;;14.90;7.13;;;13.30;63.10;;;;;;5069848;28;20173;-64
2020/12/16 13:07:34;;;;;;;12.52;7.13;;;;;;;;;;5068834;28;20048;-65
2020/12/16 13:10:03;;;;;;;16.25;8.70;;;13.70;62.60;;;;;;5065530;28;20513;-65
2020/12/16 13:12:29;;;;;;;16.20;8.13;;;;;;;;;;5061852;28;20040;-65
2020/12/16 13:14:55;;;;;;;14.35;7.95;;;;;;;;;;5062660;28;20028;-64
2020/12/16 13:17:22;;;;;;;13.57;7.75;;;;;;;;;;5070128;28;20085;-66
2020/12/16 13:19:48;;;;;;;16.13;8.65;;;;;;;;;;5070183;28;20029;-65
2020/12/16 13:22:15;;;;;;;16.13;7.90;;;;;;;;;;5070298;28;20096;-65
2020/12/16 13:24:41;;;;;;;12.80;8.00;;;;;;;;;;5068540;28;20029;-66
2020/12/16 13:27:07;;;;;;;17.30;8.27;;;;;;;;;;5069695;28;20540;-64
2020/12/16 13:29:33;;;;;;;16.30;8.68;;;;;;;;;;5068358;28;20399;-64
2020/12/16 13:32:01;;;;;;;18.60;8.25;;;;;;;;;;5069757;28;20106;-65
2020/12/16 13:34:27;;;;;;;17.40;8.35;;;;;;;;;;5068259;28;20040;-65
2020/12/16 13:36:53;;;;;;;17.80;7.65;;;;;;;;;;5070236;28;20463;-65
2020/12/16 13:39:20;;;;;;;14.57;7.47;;;;;;;;;;5058757;28;20150;-64
2020/12/16 13:41:49;;;;;;;13.30;8.07;;;13.60;63.20;;;;;;5069919;28;20032;-65
2020/12/16 13:44:16;;;;;;;14.82;7.80;;;13.50;64.10;;;;;;5071599;28;20027;-64
2020/12/16 13:46:42;;;;;;;14.52;7.95;;;;;;;;;;5073340;28;20037;-64
2020/12/16 13:49:09;;;;;;;16.13;8.60;;;;;;;;;;5073938;28;20028;-65
2020/12/16 13:51:35;;;;;;;15.57;7.78;;;;;;;;;;5073704;28;20044;-64